sensor_id;sensor_type;location;lat;lon;timestamp;P1;durP1;ratioP1;P2;durP2;ratioP2
29568;SDS011;16501;51.462;14.346;2023-07-13T00:00:35;4.88;;;1.83;;
29568;SDS011;16501;51.462;14.346;2023-07-13T00:03:01;4.90;;;1.73;;
29568;SDS011;16501;51.462;14.346;2023-07-13T00:05:27;7.78;;;1.73;;
29568;SDS011;16501;51.462;14.346;2023-07-13T00:07:52;7.97;;;1.88;;
29568;SDS011;16501;51.462;14.346;2023-07-13T00:10:18;7.75;;;1.52;;
29568;SDS011;16501;51.462;14.346;2023-07-13T00:12:43;5.32;;;1.70;;
29568;SDS011;16501;51.462;14.346;2023-07-13T00:15:42;6.15;;;1.98;;
29568;SDS011;16501;51.462;14.346;2023-07-13T00:18:01;6.63;;;1.98;;
29568;SDS011;16501;51.462;14.346;2023-07-13T00:20:26;8.57;;;1.98;;
29568;SDS011;16501;51.462;14.346;2023-07-13T00:22:52;5.57;;;2.00;;
29568;SDS011;16501;51.462;14.346;2023-07-13T00:25:21;2.72;;;1.80;;
29568;SDS011;16501;51.462;14.346;2023-07-13T00:27:49;3.88;;;1.67;;
29568;SDS011;16501;51.462;14.346;2023-07-13T00:30:15;2.90;;;1.73;;
29568;SDS011;16501;51.462;14.346;2023-07-13T00:32:41;2.75;;;1.80;;
29568;SDS011;16501;51.462;14.346;2023-07-13T00:35:06;4.13;;;1.90;;
29568;SDS011;16501;51.462;14.346;2023-07-13T00:37:32;2.47;;;1.52;;
29568;SDS011;16501;51.462;14.346;2023-07-13T00:39:58;1.85;;;1.65;;
29568;SDS011;16501;51.462;14.346;2023-07-13T00:42:23;5.60;;;1.65;;
29568;SDS011;16501;51.462;14.346;2023-07-13T00:47:36;3.38;;;1.92;;
29568;SDS011;16501;51.462;14.346;2023-07-13T00:50:02;5.28;;;1.55;;
29568;SDS011;16501;51.462;14.346;2023-07-13T00:52:28;2.55;;;1.65;;
29568;SDS011;16501;51.462;14.346;2023-07-13T00:54:54;2.78;;;1.70;;
29568;SDS011;16501;51.462;14.346;2023-07-13T00:57:20;3.80;;;2.10;;
29568;SDS011;16501;51.462;14.346;2023-07-13T00:59:47;3.60;;;1.80;;
29568;SDS011;16501;51.462;14.346;2023-07-13T01:02:16;3.05;;;1.95;;
29568;SDS011;16501;51.462;14.346;2023-07-13T01:04:42;7.78;;;2.47;;
29568;SDS011;16501;51.462;14.346;2023-07-13T01:07:08;2.95;;;1.80;;
29568;SDS011;16501;51.462;14.346;2023-07-13T01:09:34;2.22;;;1.80;;
29568;SDS011;16501;51.462;14.346;2023-07-13T01:12:00;3.63;;;1.77;;
29568;SDS011;16501;51.462;14.346;2023-07-13T01:14:25;4.53;;;1.80;;
29568;SDS011;16501;51.462;14.346;2023-07-13T01:16:50;2.58;;;1.60;;
29568;SDS011;16501;51.462;14.346;2023-07-13T01:19:33;6.53;;;2.47;;
29568;SDS011;16501;51.462;14.346;2023-07-13T01:22:03;2.67;;;1.77;;
29568;SDS011;16501;51.462;14.346;2023-07-13T01:24:33;4.18;;;2.05;;
29568;SDS011;16501;51.462;14.346;2023-07-13T01:27:00;4.50;;;1.88;;
29568;SDS011;16501;51.462;14.346;2023-07-13T01:29:25;4.32;;;1.90;;
29568;SDS011;16501;51.462;14.346;2023-07-13T01:31:50;3.78;;;2.00;;
29568;SDS011;16501;51.462;14.346;2023-07-13T01:34:15;4.80;;;2.00;;
29568;SDS011;16501;51.462;14.346;2023-07-13T01:36:41;7.60;;;2.13;;
29568;SDS011;16501;51.462;14.346;2023-07-13T01:39:07;5.47;;;2.13;;
29568;SDS011;16501;51.462;14.346;2023-07-13T01:41:32;4.07;;;2.10;;
29568;SDS011;16501;51.462;14.346;2023-07-13T01:43:57;2.78;;;1.95;;
29568;SDS011;16501;51.462;14.346;2023-07-13T01:46:22;2.83;;;1.77;;
29568;SDS011;16501;51.462;14.346;2023-07-13T01:48:48;4.30;;;2.05;;
29568;SDS011;16501;51.462;14.346;2023-07-13T01:51:15;10.13;;;2.50;;
29568;SDS011;16501;51.462;14.346;2023-07-13T01:53:40;9.48;;;1.98;;
29568;SDS011;16501;51.462;14.346;2023-07-13T01:56:05;9.52;;;2.20;;
29568;SDS011;16501;51.462;14.346;2023-07-13T01:58:31;5.25;;;2.55;;
29568;SDS011;16501;51.462;14.346;2023-07-13T02:00:58;5.20;;;1.80;;
29568;SDS011;16501;51.462;14.346;2023-07-13T02:03:23;10.60;;;1.83;;
29568;SDS011;16501;51.462;14.346;2023-07-13T02:05:48;6.40;;;2.65;;
29568;SDS011;16501;51.462;14.346;2023-07-13T02:08:14;8.93;;;2.30;;
29568;SDS011;16501;51.462;14.346;2023-07-13T02:10:39;4.07;;;2.00;;
29568;SDS011;16501;51.462;14.346;2023-07-13T02:13:06;4.88;;;2.17;;
29568;SDS011;16501;51.462;14.346;2023-07-13T02:15:31;5.47;;;2.13;;
29568;SDS011;16501;51.462;14.346;2023-07-13T02:17:57;3.40;;;2.13;;
29568;SDS011;16501;51.462;14.346;2023-07-13T02:20:23;3.15;;;1.92;;
29568;SDS011;16501;51.462;14.346;2023-07-13T02:22:48;3.05;;;2.10;;
29568;SDS011;16501;51.462;14.346;2023-07-13T02:25:14;4.18;;;2.20;;
29568;SDS011;16501;51.462;14.346;2023-07-13T02:27:39;2.15;;;1.90;;
29568;SDS011;16501;51.462;14.346;2023-07-13T02:30:04;7.03;;;2.30;;
29568;SDS011;16501;51.462;14.346;2023-07-13T02:32:30;3.13;;;1.88;;
29568;SDS011;16501;51.462;14.346;2023-07-13T02:34:55;5.88;;;2.20;;
29568;SDS011;16501;51.462;14.346;2023-07-13T02:37:21;3.55;;;2.17;;
29568;SDS011;16501;51.462;14.346;2023-07-13T02:39:46;5.82;;;2.10;;
29568;SDS011;16501;51.462;14.346;2023-07-13T02:42:13;6.45;;;2.58;;
29568;SDS011;16501;51.462;14.346;2023-07-13T02:44:38;3.67;;;2.08;;
29568;SDS011;16501;51.462;14.346;2023-07-13T02:47:03;3.15;;;1.92;;
29568;SDS011;16501;51.462;14.346;2023-07-13T02:49:28;3.38;;;1.90;;
29568;SDS011;16501;51.462;14.346;2023-07-13T02:51:54;2.50;;;2.08;;
29568;SDS011;16501;51.462;14.346;2023-07-13T02:54:19;3.38;;;2.03;;
29568;SDS011;16501;51.462;14.346;2023-07-13T02:56:44;2.58;;;2.03;;
29568;SDS011;16501;51.462;14.346;2023-07-13T02:59:09;4.35;;;2.42;;
29568;SDS011;16501;51.462;14.346;2023-07-13T03:01:35;4.75;;;2.50;;
29568;SDS011;16501;51.462;14.346;2023-07-13T03:04:01;4.32;;;2.40;;
29568;SDS011;16501;51.462;14.346;2023-07-13T03:06:26;5.40;;;2.30;;
29568;SDS011;16501;51.462;14.346;2023-07-13T03:08:55;7.53;;;2.00;;
29568;SDS011;16501;51.462;14.346;2023-07-13T03:11:20;4.30;;;2.92;;
29568;SDS011;16501;51.462;14.346;2023-07-13T03:13:46;5.45;;;2.50;;
29568;SDS011;16501;51.462;14.346;2023-07-13T03:16:12;2.95;;;2.10;;
29568;SDS011;16501;51.462;14.346;2023-07-13T03:18:39;5.32;;;2.65;;
29568;SDS011;16501;51.462;14.346;2023-07-13T03:21:04;2.70;;;2.28;;
29568;SDS011;16501;51.462;14.346;2023-07-13T03:23:30;5.13;;;2.33;;
29568;SDS011;16501;51.462;14.346;2023-07-13T03:26:06;3.15;;;2.30;;
29568;SDS011;16501;51.462;14.346;2023-07-13T03:28:33;10.57;;;2.60;;
29568;SDS011;16501;51.462;14.346;2023-07-13T03:30:59;3.55;;;2.55;;
29568;SDS011;16501;51.462;14.346;2023-07-13T03:33:25;3.67;;;2.30;;
29568;SDS011;16501;51.462;14.346;2023-07-13T03:35:51;5.60;;;2.20;;
29568;SDS011;16501;51.462;14.346;2023-07-13T03:38:16;2.33;;;2.13;;
29568;SDS011;16501;51.462;14.346;2023-07-13T03:40:41;8.82;;;2.80;;
29568;SDS011;16501;51.462;14.346;2023-07-13T03:43:07;6.05;;;2.60;;
29568;SDS011;16501;51.462;14.346;2023-07-13T03:45:32;3.05;;;2.47;;
29568;SDS011;16501;51.462;14.346;2023-07-13T03:47:57;4.30;;;2.97;;
29568;SDS011;16501;51.462;14.346;2023-07-13T03:50:22;3.40;;;2.53;;
29568;SDS011;16501;51.462;14.346;2023-07-13T03:52:48;6.90;;;2.50;;
29568;SDS011;16501;51.462;14.346;2023-07-13T03:55:13;4.57;;;2.67;;
29568;SDS011;16501;51.462;14.346;2023-07-13T03:57:38;5.22;;;2.60;;
29568;SDS011;16501;51.462;14.346;2023-07-13T04:00:04;5.20;;;2.38;;
29568;SDS011;16501;51.462;14.346;2023-07-13T04:02:30;6.20;;;3.05;;
29568;SDS011;16501;51.462;14.346;2023-07-13T04:04:56;10.07;;;2.40;;
29568;SDS011;16501;51.462;14.346;2023-07-13T04:07:21;12.30;;;2.70;;
29568;SDS011;16501;51.462;14.346;2023-07-13T04:09:46;8.68;;;2.20;;
29568;SDS011;16501;51.462;14.346;2023-07-13T04:12:11;4.13;;;2.40;;
29568;SDS011;16501;51.462;14.346;2023-07-13T04:14:38;3.58;;;2.45;;
29568;SDS011;16501;51.462;14.346;2023-07-13T04:17:03;4.63;;;2.92;;
29568;SDS011;16501;51.462;14.346;2023-07-13T04:19:29;4.00;;;2.30;;
29568;SDS011;16501;51.462;14.346;2023-07-13T04:21:54;3.75;;;2.25;;
29568;SDS011;16501;51.462;14.346;2023-07-13T04:24:19;5.90;;;2.70;;
29568;SDS011;16501;51.462;14.346;2023-07-13T04:26:44;5.70;;;2.60;;
29568;SDS011;16501;51.462;14.346;2023-07-13T04:29:10;4.88;;;2.38;;
29568;SDS011;16501;51.462;14.346;2023-07-13T04:31:35;8.20;;;2.78;;
29568;SDS011;16501;51.462;14.346;2023-07-13T04:34:00;5.55;;;2.25;;
29568;SDS011;16501;51.462;14.346;2023-07-13T04:36:26;5.20;;;2.40;;
29568;SDS011;16501;51.462;14.346;2023-07-13T04:38:54;4.18;;;2.83;;
29568;SDS011;16501;51.462;14.346;2023-07-13T04:41:19;4.32;;;2.55;;
29568;SDS011;16501;51.462;14.346;2023-07-13T04:43:46;7.30;;;2.30;;
29568;SDS011;16501;51.462;14.346;2023-07-13T04:46:11;3.15;;;2.75;;
29568;SDS011;16501;51.462;14.346;2023-07-13T04:48:38;4.30;;;3.10;;
29568;SDS011;16501;51.462;14.346;2023-07-13T04:51:03;5.22;;;2.78;;
29568;SDS011;16501;51.462;14.346;2023-07-13T04:53:29;5.80;;;2.63;;
29568;SDS011;16501;51.462;14.346;2023-07-13T04:55:55;5.72;;;2.92;;
29568;SDS011;16501;51.462;14.346;2023-07-13T04:58:21;6.68;;;2.38;;
29568;SDS011;16501;51.462;14.346;2023-07-13T05:00:47;8.18;;;2.47;;
29568;SDS011;16501;51.462;14.346;2023-07-13T05:03:12;5.90;;;2.72;;
29568;SDS011;16501;51.462;14.346;2023-07-13T05:05:38;7.82;;;2.67;;
29568;SDS011;16501;51.462;14.346;2023-07-13T05:08:03;3.58;;;2.20;;
29568;SDS011;16501;51.462;14.346;2023-07-13T05:10:28;4.35;;;2.58;;
29568;SDS011;16501;51.462;14.346;2023-07-13T05:12:53;3.90;;;2.95;;
29568;SDS011;16501;51.462;14.346;2023-07-13T05:15:20;7.60;;;2.42;;
29568;SDS011;16501;51.462;14.346;2023-07-13T05:17:47;7.35;;;2.53;;
29568;SDS011;16501;51.462;14.346;2023-07-13T05:20:13;6.90;;;2.70;;
29568;SDS011;16501;51.462;14.346;2023-07-13T05:22:38;6.82;;;2.17;;
29568;SDS011;16501;51.462;14.346;2023-07-13T05:25:06;3.30;;;2.50;;
29568;SDS011;16501;51.462;14.346;2023-07-13T05:27:33;8.02;;;2.50;;
29568;SDS011;16501;51.462;14.346;2023-07-13T05:29:58;5.85;;;2.70;;
29568;SDS011;16501;51.462;14.346;2023-07-13T05:32:24;7.20;;;2.65;;
29568;SDS011;16501;51.462;14.346;2023-07-13T05:34:49;3.45;;;2.65;;
29568;SDS011;16501;51.462;14.346;2023-07-13T05:37:14;6.32;;;2.72;;
29568;SDS011;16501;51.462;14.346;2023-07-13T05:39:39;12.63;;;2.97;;
29568;SDS011;16501;51.462;14.346;2023-07-13T05:42:05;9.32;;;2.58;;
29568;SDS011;16501;51.462;14.346;2023-07-13T05:44:31;8.07;;;2.83;;
29568;SDS011;16501;51.462;14.346;2023-07-13T05:46:56;6.82;;;2.85;;
29568;SDS011;16501;51.462;14.346;2023-07-13T05:49:21;3.88;;;2.17;;
29568;SDS011;16501;51.462;14.346;2023-07-13T05:51:47;7.53;;;2.90;;
29568;SDS011;16501;51.462;14.346;2023-07-13T05:54:12;11.52;;;2.90;;
29568;SDS011;16501;51.462;14.346;2023-07-13T05:56:37;8.60;;;2.40;;
29568;SDS011;16501;51.462;14.346;2023-07-13T05:59:03;11.27;;;3.17;;
29568;SDS011;16501;51.462;14.346;2023-07-13T06:01:29;5.43;;;2.65;;
29568;SDS011;16501;51.462;14.346;2023-07-13T06:03:55;7.45;;;2.80;;
29568;SDS011;16501;51.462;14.346;2023-07-13T06:06:20;4.90;;;2.72;;
29568;SDS011;16501;51.462;14.346;2023-07-13T06:08:45;9.93;;;3.03;;
29568;SDS011;16501;51.462;14.346;2023-07-13T06:11:15;4.47;;;2.58;;
29568;SDS011;16501;51.462;14.346;2023-07-13T06:13:42;7.05;;;3.28;;
29568;SDS011;16501;51.462;14.346;2023-07-13T06:16:07;4.72;;;2.58;;
29568;SDS011;16501;51.462;14.346;2023-07-13T06:18:34;7.60;;;2.75;;
29568;SDS011;16501;51.462;14.346;2023-07-13T06:21:00;4.63;;;2.40;;
29568;SDS011;16501;51.462;14.346;2023-07-13T06:23:30;5.10;;;2.42;;
29568;SDS011;16501;51.462;14.346;2023-07-13T06:25:55;9.32;;;2.45;;
29568;SDS011;16501;51.462;14.346;2023-07-13T06:28:21;9.43;;;2.40;;
29568;SDS011;16501;51.462;14.346;2023-07-13T06:30:46;6.72;;;2.08;;
29568;SDS011;16501;51.462;14.346;2023-07-13T06:33:11;10.60;;;2.20;;
29568;SDS011;16501;51.462;14.346;2023-07-13T06:35:37;7.50;;;2.50;;
29568;SDS011;16501;51.462;14.346;2023-07-13T06:38:02;4.63;;;2.47;;
29568;SDS011;16501;51.462;14.346;2023-07-13T06:40:27;10.85;;;2.58;;
29568;SDS011;16501;51.462;14.346;2023-07-13T06:42:54;4.90;;;2.30;;
29568;SDS011;16501;51.462;14.346;2023-07-13T06:45:19;5.72;;;2.13;;
29568;SDS011;16501;51.462;14.346;2023-07-13T06:47:44;7.65;;;2.45;;
29568;SDS011;16501;51.462;14.346;2023-07-13T06:50:09;8.23;;;1.85;;
29568;SDS011;16501;51.462;14.346;2023-07-13T06:52:35;4.90;;;2.10;;
29568;SDS011;16501;51.462;14.346;2023-07-13T06:55:00;5.57;;;2.40;;
29568;SDS011;16501;51.462;14.346;2023-07-13T06:57:25;10.60;;;3.40;;
29568;SDS011;16501;51.462;14.346;2023-07-13T06:59:51;10.43;;;2.67;;
29568;SDS011;16501;51.462;14.346;2023-07-13T07:02:16;4.07;;;2.00;;
29568;SDS011;16501;51.462;14.346;2023-07-13T07:04:42;9.10;;;2.20;;
29568;SDS011;16501;51.462;14.346;2023-07-13T07:07:07;5.32;;;2.38;;
29568;SDS011;16501;51.462;14.346;2023-07-13T07:09:32;4.18;;;2.03;;
29568;SDS011;16501;51.462;14.346;2023-07-13T07:11:57;6.38;;;2.38;;
29568;SDS011;16501;51.462;14.346;2023-07-13T07:14:23;4.82;;;1.80;;
29568;SDS011;16501;51.462;14.346;2023-07-13T07:16:49;5.50;;;1.90;;
29568;SDS011;16501;51.462;14.346;2023-07-13T07:19:15;4.97;;;1.60;;
29568;SDS011;16501;51.462;14.346;2023-07-13T07:21:40;6.22;;;2.35;;
29568;SDS011;16501;51.462;14.346;2023-07-13T07:24:05;6.22;;;2.45;;
29568;SDS011;16501;51.462;14.346;2023-07-13T07:26:31;9.63;;;2.22;;
29568;SDS011;16501;51.462;14.346;2023-07-13T07:28:56;7.90;;;2.08;;
29568;SDS011;16501;51.462;14.346;2023-07-13T07:31:21;5.70;;;2.03;;
29568;SDS011;16501;51.462;14.346;2023-07-13T07:33:47;4.10;;;2.10;;
29568;SDS011;16501;51.462;14.346;2023-07-13T07:36:14;2.83;;;1.60;;
29568;SDS011;16501;51.462;14.346;2023-07-13T07:38:40;11.55;;;2.05;;
29568;SDS011;16501;51.462;14.346;2023-07-13T07:41:05;5.68;;;1.70;;
29568;SDS011;16501;51.462;14.346;2023-07-13T07:43:31;3.38;;;1.67;;
29568;SDS011;16501;51.462;14.346;2023-07-13T07:45:56;5.07;;;1.50;;
29568;SDS011;16501;51.462;14.346;2023-07-13T07:48:22;3.85;;;1.80;;
29568;SDS011;16501;51.462;14.346;2023-07-13T07:50:48;7.82;;;1.65;;
29568;SDS011;16501;51.462;14.346;2023-07-13T07:53:13;4.03;;;1.40;;
29568;SDS011;16501;51.462;14.346;2023-07-13T07:55:39;5.05;;;1.75;;
29568;SDS011;16501;51.462;14.346;2023-07-13T07:58:05;4.03;;;1.60;;
29568;SDS011;16501;51.462;14.346;2023-07-13T08:00:30;3.20;;;1.50;;
29568;SDS011;16501;51.462;14.346;2023-07-13T08:02:57;4.10;;;1.90;;
29568;SDS011;16501;51.462;14.346;2023-07-13T08:05:23;3.65;;;1.65;;
29568;SDS011;16501;51.462;14.346;2023-07-13T08:07:49;6.25;;;1.80;;
29568;SDS011;16501;51.462;14.346;2023-07-13T08:10:16;5.40;;;1.50;;
29568;SDS011;16501;51.462;14.346;2023-07-13T08:12:42;3.63;;;1.67;;
29568;SDS011;16501;51.462;14.346;2023-07-13T08:15:09;5.55;;;1.55;;
29568;SDS011;16501;51.462;14.346;2023-07-13T08:17:37;6.43;;;1.40;;
29568;SDS011;16501;51.462;14.346;2023-07-13T08:20:02;6.50;;;1.67;;
29568;SDS011;16501;51.462;14.346;2023-07-13T08:22:28;4.38;;;1.55;;
29568;SDS011;16501;51.462;14.346;2023-07-13T08:24:53;3.42;;;1.35;;
29568;SDS011;16501;51.462;14.346;2023-07-13T08:27:22;3.05;;;1.58;;
29568;SDS011;16501;51.462;14.346;2023-07-13T08:29:48;5.15;;;1.88;;
29568;SDS011;16501;51.462;14.346;2023-07-13T08:32:13;4.30;;;1.88;;
29568;SDS011;16501;51.462;14.346;2023-07-13T08:34:39;3.58;;;1.50;;
29568;SDS011;16501;51.462;14.346;2023-07-13T08:37:05;3.55;;;1.27;;
29568;SDS011;16501;51.462;14.346;2023-07-13T08:39:31;2.15;;;1.10;;
29568;SDS011;16501;51.462;14.346;2023-07-13T08:41:59;6.00;;;1.50;;
29568;SDS011;16501;51.462;14.346;2023-07-13T08:44:30;3.42;;;1.30;;
29568;SDS011;16501;51.462;14.346;2023-07-13T08:47:19;6.35;;;1.52;;
29568;SDS011;16501;51.462;14.346;2023-07-13T08:49:48;4.53;;;1.42;;
29568;SDS011;16501;51.462;14.346;2023-07-13T08:52:17;4.32;;;1.58;;
29568;SDS011;16501;51.462;14.346;2023-07-13T08:54:55;5.90;;;1.20;;
29568;SDS011;16501;51.462;14.346;2023-07-13T08:57:25;6.18;;;1.02;;
29568;SDS011;16501;51.462;14.346;2023-07-13T08:59:56;3.20;;;1.23;;
29568;SDS011;16501;51.462;14.346;2023-07-13T09:02:34;3.67;;;1.20;;
29568;SDS011;16501;51.462;14.346;2023-07-13T09:05:21;4.05;;;1.48;;
29568;SDS011;16501;51.462;14.346;2023-07-13T09:11:05;6.90;;;1.65;;
29568;SDS011;16501;51.462;14.346;2023-07-13T09:13:51;4.75;;;1.50;;
29568;SDS011;16501;51.462;14.346;2023-07-13T09:16:25;3.42;;;1.17;;
29568;SDS011;16501;51.462;14.346;2023-07-13T09:18:51;2.17;;;1.30;;
29568;SDS011;16501;51.462;14.346;2023-07-13T09:21:25;4.18;;;1.40;;
29568;SDS011;16501;51.462;14.346;2023-07-13T09:23:56;3.72;;;1.10;;
29568;SDS011;16501;51.462;14.346;2023-07-13T09:26:25;5.40;;;1.33;;
29568;SDS011;16501;51.462;14.346;2023-07-13T09:28:56;3.13;;;1.25;;
29568;SDS011;16501;51.462;14.346;2023-07-13T09:31:36;3.30;;;1.17;;
29568;SDS011;16501;51.462;14.346;2023-07-13T09:34:09;1.88;;;1.27;;
29568;SDS011;16501;51.462;14.346;2023-07-13T09:36:35;3.15;;;1.20;;
29568;SDS011;16501;51.462;14.346;2023-07-13T09:44:29;2.97;;;1.38;;
29568;SDS011;16501;51.462;14.346;2023-07-13T09:47:00;4.65;;;1.38;;
29568;SDS011;16501;51.462;14.346;2023-07-13T09:49:28;4.05;;;1.77;;
29568;SDS011;16501;51.462;14.346;2023-07-13T09:52:02;2.45;;;1.30;;
29568;SDS011;16501;51.462;14.346;2023-07-13T09:54:32;4.05;;;1.40;;
29568;SDS011;16501;51.462;14.346;2023-07-13T09:56:59;3.40;;;1.63;;
29568;SDS011;16501;51.462;14.346;2023-07-13T09:59:28;4.68;;;1.38;;
29568;SDS011;16501;51.462;14.346;2023-07-13T10:05:04;3.75;;;1.70;;
29568;SDS011;16501;51.462;14.346;2023-07-13T10:07:40;7.68;;;2.00;;
29568;SDS011;16501;51.462;14.346;2023-07-13T10:10:15;3.13;;;1.58;;
29568;SDS011;16501;51.462;14.346;2023-07-13T10:12:44;4.45;;;1.58;;
29568;SDS011;16501;51.462;14.346;2023-07-13T10:15:14;3.92;;;1.70;;
29568;SDS011;16501;51.462;14.346;2023-07-13T10:17:42;5.35;;;1.52;;
29568;SDS011;16501;51.462;14.346;2023-07-13T10:20:09;4.22;;;1.20;;
29568;SDS011;16501;51.462;14.346;2023-07-13T10:23:20;4.43;;;1.40;;
29568;SDS011;16501;51.462;14.346;2023-07-13T10:25:29;4.85;;;1.50;;
29568;SDS011;16501;51.462;14.346;2023-07-13T10:27:58;4.38;;;1.80;;
29568;SDS011;16501;51.462;14.346;2023-07-13T10:30:31;3.78;;;1.67;;
29568;SDS011;16501;51.462;14.346;2023-07-13T10:33:02;6.13;;;1.48;;
29568;SDS011;16501;51.462;14.346;2023-07-13T10:35:29;4.45;;;1.92;;
29568;SDS011;16501;51.462;14.346;2023-07-13T10:38:06;3.05;;;1.15;;
29568;SDS011;16501;51.462;14.346;2023-07-13T10:40:51;5.45;;;1.60;;
29568;SDS011;16501;51.462;14.346;2023-07-13T10:43:26;2.03;;;1.27;;
29568;SDS011;16501;51.462;14.346;2023-07-13T10:45:56;3.15;;;1.40;;
29568;SDS011;16501;51.462;14.346;2023-07-13T10:48:24;5.50;;;1.90;;
29568;SDS011;16501;51.462;14.346;2023-07-13T10:50:50;3.63;;;1.23;;
29568;SDS011;16501;51.462;14.346;2023-07-13T10:53:19;5.43;;;1.85;;
29568;SDS011;16501;51.462;14.346;2023-07-13T10:58:19;3.63;;;1.52;;
29568;SDS011;16501;51.462;14.346;2023-07-13T11:01:03;3.92;;;1.40;;
29568;SDS011;16501;51.462;14.346;2023-07-13T11:03:33;4.47;;;1.38;;
29568;SDS011;16501;51.462;14.346;2023-07-13T11:18:46;5.20;;;1.65;;
29568;SDS011;16501;51.462;14.346;2023-07-13T11:21:17;2.58;;;1.40;;
29568;SDS011;16501;51.462;14.346;2023-07-13T11:23:44;6.07;;;1.77;;
29568;SDS011;16501;51.462;14.346;2023-07-13T11:29:08;3.08;;;1.40;;
29568;SDS011;16501;51.462;14.346;2023-07-13T11:31:40;4.55;;;1.58;;
29568;SDS011;16501;51.462;14.346;2023-07-13T11:34:10;2.92;;;1.27;;
29568;SDS011;16501;51.462;14.346;2023-07-13T11:39:18;2.47;;;1.25;;
29568;SDS011;16501;51.462;14.346;2023-07-13T11:41:53;4.40;;;1.30;;
29568;SDS011;16501;51.462;14.346;2023-07-13T11:44:25;4.47;;;1.27;;
29568;SDS011;16501;51.462;14.346;2023-07-13T11:46:54;2.50;;;1.40;;
29568;SDS011;16501;51.462;14.346;2023-07-13T11:49:29;4.82;;;1.40;;
29568;SDS011;16501;51.462;14.346;2023-07-13T11:52:04;6.45;;;1.60;;
29568;SDS011;16501;51.462;14.346;2023-07-13T11:54:34;4.00;;;1.48;;
29568;SDS011;16501;51.462;14.346;2023-07-13T11:57:20;2.72;;;1.33;;
29568;SDS011;16501;51.462;14.346;2023-07-13T12:00:03;5.20;;;1.50;;
29568;SDS011;16501;51.462;14.346;2023-07-13T12:02:38;10.02;;;1.67;;
29568;SDS011;16501;51.462;14.346;2023-07-13T12:05:09;2.22;;;1.42;;
29568;SDS011;16501;51.462;14.346;2023-07-13T12:07:37;3.47;;;1.40;;
29568;SDS011;16501;51.462;14.346;2023-07-13T12:10:13;8.10;;;1.52;;
29568;SDS011;16501;51.462;14.346;2023-07-13T12:13:08;6.93;;;2.05;;
29568;SDS011;16501;51.462;14.346;2023-07-13T12:18:02;6.00;;;1.30;;
29568;SDS011;16501;51.462;14.346;2023-07-13T12:20:28;4.90;;;1.48;;
29568;SDS011;16501;51.462;14.346;2023-07-13T12:23:04;3.42;;;1.42;;
29568;SDS011;16501;51.462;14.346;2023-07-13T12:25:31;5.53;;;1.52;;
29568;SDS011;16501;51.462;14.346;2023-07-13T12:27:56;7.40;;;1.58;;
29568;SDS011;16501;51.462;14.346;2023-07-13T12:30:29;5.00;;;1.50;;
29568;SDS011;16501;51.462;14.346;2023-07-13T12:33:05;5.07;;;1.48;;
29568;SDS011;16501;51.462;14.346;2023-07-13T12:35:39;5.35;;;1.60;;
29568;SDS011;16501;51.462;14.346;2023-07-13T12:38:10;9.35;;;1.52;;
29568;SDS011;16501;51.462;14.346;2023-07-13T12:40:35;4.43;;;1.45;;
29568;SDS011;16501;51.462;14.346;2023-07-13T12:43:01;2.72;;;1.33;;
29568;SDS011;16501;51.462;14.346;2023-07-13T12:45:29;5.68;;;1.77;;
29568;SDS011;16501;51.462;14.346;2023-07-13T12:48:02;3.55;;;1.40;;
29568;SDS011;16501;51.462;14.346;2023-07-13T12:50:36;3.33;;;1.60;;
29568;SDS011;16501;51.462;14.346;2023-07-13T12:53:06;5.63;;;1.67;;
29568;SDS011;16501;51.462;14.346;2023-07-13T12:55:48;11.30;;;1.75;;
29568;SDS011;16501;51.462;14.346;2023-07-13T13:01:26;4.72;;;1.55;;
29568;SDS011;16501;51.462;14.346;2023-07-13T13:03:53;6.30;;;2.53;;
29568;SDS011;16501;51.462;14.346;2023-07-13T13:06:27;7.03;;;1.83;;
29568;SDS011;16501;51.462;14.346;2023-07-13T13:08:55;9.50;;;1.70;;
29568;SDS011;16501;51.462;14.346;2023-07-13T13:11:23;3.63;;;1.45;;
29568;SDS011;16501;51.462;14.346;2023-07-13T13:13:49;5.07;;;1.35;;
29568;SDS011;16501;51.462;14.346;2023-07-13T13:16:20;5.30;;;1.50;;
29568;SDS011;16501;51.462;14.346;2023-07-13T13:18:50;4.55;;;1.60;;
29568;SDS011;16501;51.462;14.346;2023-07-13T13:21:16;7.50;;;1.85;;
29568;SDS011;16501;51.462;14.346;2023-07-13T13:23:43;10.05;;;1.48;;
29568;SDS011;16501;51.462;14.346;2023-07-13T13:26:10;4.35;;;1.38;;
29568;SDS011;16501;51.462;14.346;2023-07-13T13:28:36;4.25;;;1.30;;
29568;SDS011;16501;51.462;14.346;2023-07-13T13:31:02;4.20;;;1.53;;
29568;SDS011;16501;51.462;14.346;2023-07-13T13:33:27;13.13;;;2.00;;
29568;SDS011;16501;51.462;14.346;2023-07-13T13:35:52;4.13;;;1.42;;
29568;SDS011;16501;51.462;14.346;2023-07-13T13:38:20;5.35;;;1.17;;
29568;SDS011;16501;51.462;14.346;2023-07-13T13:40:52;2.42;;;1.50;;
29568;SDS011;16501;51.462;14.346;2023-07-13T13:43:21;3.72;;;1.83;;
29568;SDS011;16501;51.462;14.346;2023-07-13T13:45:51;3.08;;;1.40;;
29568;SDS011;16501;51.462;14.346;2023-07-13T13:48:18;2.55;;;1.15;;
29568;SDS011;16501;51.462;14.346;2023-07-13T13:50:47;4.13;;;1.35;;
29568;SDS011;16501;51.462;14.346;2023-07-13T13:53:13;8.00;;;1.30;;
29568;SDS011;16501;51.462;14.346;2023-07-13T13:55:39;3.17;;;1.33;;
29568;SDS011;16501;51.462;14.346;2023-07-13T13:58:06;5.38;;;1.38;;
29568;SDS011;16501;51.462;14.346;2023-07-13T14:03:56;6.55;;;1.42;;
29568;SDS011;16501;51.462;14.346;2023-07-13T14:06:24;4.05;;;1.30;;
29568;SDS011;16501;51.462;14.346;2023-07-13T14:08:49;2.75;;;1.17;;
29568;SDS011;16501;51.462;14.346;2023-07-13T14:11:15;9.38;;;1.45;;
29568;SDS011;16501;51.462;14.346;2023-07-13T14:13:44;5.18;;;1.40;;
29568;SDS011;16501;51.462;14.346;2023-07-13T14:16:15;2.92;;;1.40;;
29568;SDS011;16501;51.462;14.346;2023-07-13T14:18:44;3.40;;;1.27;;
29568;SDS011;16501;51.462;14.346;2023-07-13T14:21:14;5.32;;;1.40;;
29568;SDS011;16501;51.462;14.346;2023-07-13T14:23:41;7.75;;;1.65;;
29568;SDS011;16501;51.462;14.346;2023-07-13T14:26:10;5.85;;;1.52;;
29568;SDS011;16501;51.462;14.346;2023-07-13T14:28:37;5.78;;;1.48;;
29568;SDS011;16501;51.462;14.346;2023-07-13T14:31:06;6.72;;;1.40;;
29568;SDS011;16501;51.462;14.346;2023-07-13T14:33:31;2.53;;;1.15;;
29568;SDS011;16501;51.462;14.346;2023-07-13T14:35:56;2.53;;;1.13;;
29568;SDS011;16501;51.462;14.346;2023-07-13T14:38:22;3.97;;;1.65;;
29568;SDS011;16501;51.462;14.346;2023-07-13T14:40:47;5.65;;;1.15;;
29568;SDS011;16501;51.462;14.346;2023-07-13T14:43:13;4.47;;;1.13;;
29568;SDS011;16501;51.462;14.346;2023-07-13T14:45:41;2.10;;;1.02;;
29568;SDS011;16501;51.462;14.346;2023-07-13T14:48:21;4.03;;;1.15;;
29568;SDS011;16501;51.462;14.346;2023-07-13T14:50:50;4.07;;;1.20;;
29568;SDS011;16501;51.462;14.346;2023-07-13T14:53:22;2.47;;;1.20;;
29568;SDS011;16501;51.462;14.346;2023-07-13T14:55:55;6.97;;;1.45;;
29568;SDS011;16501;51.462;14.346;2023-07-13T14:58:20;2.50;;;1.35;;
29568;SDS011;16501;51.462;14.346;2023-07-13T15:00:45;2.47;;;0.90;;
29568;SDS011;16501;51.462;14.346;2023-07-13T15:03:21;2.03;;;1.23;;
29568;SDS011;16501;51.462;14.346;2023-07-13T15:05:48;2.88;;;1.60;;
29568;SDS011;16501;51.462;14.346;2023-07-13T15:08:14;3.83;;;1.42;;
29568;SDS011;16501;51.462;14.346;2023-07-13T15:10:40;5.30;;;1.27;;
29568;SDS011;16501;51.462;14.346;2023-07-13T15:13:16;3.47;;;1.30;;
29568;SDS011;16501;51.462;14.346;2023-07-13T15:15:43;2.30;;;0.80;;
29568;SDS011;16501;51.462;14.346;2023-07-13T15:18:11;2.80;;;1.30;;
29568;SDS011;16501;51.462;14.346;2023-07-13T15:20:37;3.95;;;1.38;;